sensor_id;sensor_type;location;lat;lon;timestamp;P1;durP1;ratioP1;P2;durP2;ratioP2
48935;SDS011;34745;52.276;10.528;2023-05-07T00:02:09;31.33;;;23.93;;
48935;SDS011;34745;52.276;10.528;2023-05-07T00:04:37;31.43;;;23.60;;
48935;SDS011;34745;52.276;10.528;2023-05-07T00:07:05;31.27;;;24.37;;
48935;SDS011;34745;52.276;10.528;2023-05-07T00:09:32;34.17;;;25.03;;
48935;SDS011;34745;52.276;10.528;2023-05-07T00:12:00;32.80;;;24.80;;
48935;SDS011;34745;52.276;10.528;2023-05-07T00:14:27;34.70;;;24.90;;
48935;SDS011;34745;52.276;10.528;2023-05-07T00:16:54;35.27;;;24.80;;
48935;SDS011;34745;52.276;10.528;2023-05-07T00:19:23;32.60;;;24.07;;
48935;SDS011;34745;52.276;10.528;2023-05-07T00:21:50;34.93;;;25.70;;
48935;SDS011;34745;52.276;10.528;2023-05-07T00:24:20;34.67;;;25.43;;
48935;SDS011;34745;52.276;10.528;2023-05-07T00:26:46;35.73;;;25.50;;
48935;SDS011;34745;52.276;10.528;2023-05-07T00:29:14;33.93;;;24.60;;
48935;SDS011;34745;52.276;10.528;2023-05-07T00:31:41;32.53;;;23.47;;
48935;SDS011;34745;52.276;10.528;2023-05-07T00:34:08;31.03;;;21.80;;
48935;SDS011;34745;52.276;10.528;2023-05-07T00:36:36;31.47;;;21.77;;
48935;SDS011;34745;52.276;10.528;2023-05-07T00:39:03;26.87;;;20.53;;
48935;SDS011;34745;52.276;10.528;2023-05-07T00:41:30;24.10;;;19.13;;
48935;SDS011;34745;52.276;10.528;2023-05-07T00:43:57;22.93;;;17.83;;
48935;SDS011;34745;52.276;10.528;2023-05-07T00:46:25;22.27;;;16.43;;
48935;SDS011;34745;52.276;10.528;2023-05-07T00:48:52;20.17;;;16.47;;
48935;SDS011;34745;52.276;10.528;2023-05-07T00:51:20;22.07;;;16.97;;
48935;SDS011;34745;52.276;10.528;2023-05-07T00:53:48;23.10;;;17.47;;
48935;SDS011;34745;52.276;10.528;2023-05-07T00:56:16;21.10;;;17.20;;
48935;SDS011;34745;52.276;10.528;2023-05-07T00:58:43;25.43;;;18.93;;
48935;SDS011;34745;52.276;10.528;2023-05-07T01:01:11;27.37;;;19.23;;
48935;SDS011;34745;52.276;10.528;2023-05-07T01:03:38;25.20;;;18.53;;
48935;SDS011;34745;52.276;10.528;2023-05-07T01:06:05;24.80;;;18.50;;
48935;SDS011;34745;52.276;10.528;2023-05-07T01:08:34;24.07;;;18.20;;
48935;SDS011;34745;52.276;10.528;2023-05-07T01:11:03;23.17;;;16.83;;
48935;SDS011;34745;52.276;10.528;2023-05-07T01:13:30;21.73;;;16.53;;
48935;SDS011;34745;52.276;10.528;2023-05-07T01:15:58;23.27;;;17.27;;
48935;SDS011;34745;52.276;10.528;2023-05-07T01:18:25;20.03;;;16.30;;
48935;SDS011;34745;52.276;10.528;2023-05-07T01:20:53;22.27;;;16.10;;
48935;SDS011;34745;52.276;10.528;2023-05-07T01:23:23;21.23;;;16.37;;
48935;SDS011;34745;52.276;10.528;2023-05-07T01:25:52;18.53;;;15.23;;
48935;SDS011;34745;52.276;10.528;2023-05-07T01:28:19;19.80;;;15.27;;
48935;SDS011;34745;52.276;10.528;2023-05-07T01:30:56;20.30;;;16.17;;
48935;SDS011;34745;52.276;10.528;2023-05-07T01:33:28;19.23;;;15.33;;
48935;SDS011;34745;52.276;10.528;2023-05-07T01:35:58;21.77;;;16.23;;
48935;SDS011;34745;52.276;10.528;2023-05-07T01:38:31;22.03;;;16.50;;
48935;SDS011;34745;52.276;10.528;2023-05-07T01:40:59;21.27;;;15.73;;
48935;SDS011;34745;52.276;10.528;2023-05-07T01:43:26;19.50;;;15.60;;
48935;SDS011;34745;52.276;10.528;2023-05-07T01:45:53;20.23;;;15.57;;
48935;SDS011;34745;52.276;10.528;2023-05-07T01:48:21;17.57;;;14.17;;
48935;SDS011;34745;52.276;10.528;2023-05-07T01:50:49;17.70;;;14.17;;
48935;SDS011;34745;52.276;10.528;2023-05-07T01:53:17;20.10;;;14.00;;
48935;SDS011;34745;52.276;10.528;2023-05-07T01:55:45;15.77;;;13.23;;
48935;SDS011;34745;52.276;10.528;2023-05-07T01:58:12;16.60;;;12.93;;
48935;SDS011;34745;52.276;10.528;2023-05-07T02:00:39;16.40;;;13.53;;
48935;SDS011;34745;52.276;10.528;2023-05-07T02:03:07;19.57;;;14.33;;
48935;SDS011;34745;52.276;10.528;2023-05-07T02:05:34;16.13;;;13.87;;
48935;SDS011;34745;52.276;10.528;2023-05-07T02:08:01;18.07;;;14.10;;
48935;SDS011;34745;52.276;10.528;2023-05-07T02:10:28;15.83;;;13.53;;
48935;SDS011;34745;52.276;10.528;2023-05-07T02:12:57;18.70;;;13.67;;
48935;SDS011;34745;52.276;10.528;2023-05-07T02:15:24;15.30;;;13.67;;
48935;SDS011;34745;52.276;10.528;2023-05-07T02:17:57;15.30;;;12.93;;
48935;SDS011;34745;52.276;10.528;2023-05-07T02:20:26;15.63;;;13.30;;
48935;SDS011;34745;52.276;10.528;2023-05-07T02:22:53;15.97;;;13.23;;
48935;SDS011;34745;52.276;10.528;2023-05-07T02:25:21;15.23;;;12.93;;
48935;SDS011;34745;52.276;10.528;2023-05-07T02:27:48;16.03;;;12.60;;
48935;SDS011;34745;52.276;10.528;2023-05-07T02:30:16;15.90;;;12.37;;
48935;SDS011;34745;52.276;10.528;2023-05-07T02:32:43;16.03;;;12.53;;
48935;SDS011;34745;52.276;10.528;2023-05-07T02:35:11;13.43;;;11.30;;
48935;SDS011;34745;52.276;10.528;2023-05-07T02:37:38;15.43;;;13.17;;
48935;SDS011;34745;52.276;10.528;2023-05-07T02:40:05;14.33;;;12.50;;
48935;SDS011;34745;52.276;10.528;2023-05-07T02:42:33;14.53;;;12.40;;
48935;SDS011;34745;52.276;10.528;2023-05-07T02:45:01;14.57;;;12.77;;
48935;SDS011;34745;52.276;10.528;2023-05-07T02:47:30;15.40;;;12.90;;
48935;SDS011;34745;52.276;10.528;2023-05-07T02:49:57;15.73;;;12.93;;
48935;SDS011;34745;52.276;10.528;2023-05-07T02:52:24;17.33;;;13.50;;
48935;SDS011;34745;52.276;10.528;2023-05-07T02:54:51;16.53;;;12.90;;
48935;SDS011;34745;52.276;10.528;2023-05-07T02:57:17;16.93;;;13.03;;
48935;SDS011;34745;52.276;10.528;2023-05-07T02:59:45;13.33;;;11.93;;
48935;SDS011;34745;52.276;10.528;2023-05-07T03:02:11;15.47;;;12.00;;
48935;SDS011;34745;52.276;10.528;2023-05-07T03:04:40;15.37;;;11.77;;
48935;SDS011;34745;52.276;10.528;2023-05-07T03:07:07;13.90;;;11.90;;
48935;SDS011;34745;52.276;10.528;2023-05-07T03:09:35;16.63;;;12.00;;
48935;SDS011;34745;52.276;10.528;2023-05-07T03:12:01;13.63;;;11.53;;
48935;SDS011;34745;52.276;10.528;2023-05-07T03:14:29;14.00;;;11.30;;
48935;SDS011;34745;52.276;10.528;2023-05-07T03:16:56;14.10;;;11.60;;
48935;SDS011;34745;52.276;10.528;2023-05-07T03:19:23;13.23;;;11.83;;
48935;SDS011;34745;52.276;10.528;2023-05-07T03:21:51;14.37;;;11.87;;
48935;SDS011;34745;52.276;10.528;2023-05-07T03:24:18;16.03;;;13.07;;
48935;SDS011;34745;52.276;10.528;2023-05-07T03:26:46;16.70;;;12.63;;
48935;SDS011;34745;52.276;10.528;2023-05-07T03:29:13;15.77;;;12.37;;
48935;SDS011;34745;52.276;10.528;2023-05-07T03:31:40;14.17;;;12.47;;
48935;SDS011;34745;52.276;10.528;2023-05-07T03:34:07;17.87;;;13.80;;
48935;SDS011;34745;52.276;10.528;2023-05-07T03:36:34;17.93;;;13.57;;
48935;SDS011;34745;52.276;10.528;2023-05-07T03:39:03;15.73;;;13.10;;
48935;SDS011;34745;52.276;10.528;2023-05-07T03:41:30;13.40;;;12.00;;
48935;SDS011;34745;52.276;10.528;2023-05-07T03:43:57;13.43;;;12.00;;
48935;SDS011;34745;52.276;10.528;2023-05-07T03:46:24;15.43;;;13.03;;
48935;SDS011;34745;52.276;10.528;2023-05-07T03:48:53;17.83;;;13.40;;
48935;SDS011;34745;52.276;10.528;2023-05-07T03:51:20;15.73;;;13.87;;
48935;SDS011;34745;52.276;10.528;2023-05-07T03:53:47;17.40;;;13.57;;
48935;SDS011;34745;52.276;10.528;2023-05-07T03:56:15;18.50;;;13.60;;
48935;SDS011;34745;52.276;10.528;2023-05-07T03:58:44;13.73;;;12.07;;
48935;SDS011;34745;52.276;10.528;2023-05-07T04:01:12;19.20;;;12.07;;
48935;SDS011;34745;52.276;10.528;2023-05-07T04:03:39;13.40;;;11.27;;
48935;SDS011;34745;52.276;10.528;2023-05-07T04:06:06;13.10;;;11.10;;
48935;SDS011;34745;52.276;10.528;2023-05-07T04:08:33;14.03;;;11.07;;
48935;SDS011;34745;52.276;10.528;2023-05-07T04:10:59;12.47;;;10.77;;
48935;SDS011;34745;52.276;10.528;2023-05-07T04:13:28;12.00;;;10.70;;
48935;SDS011;34745;52.276;10.528;2023-05-07T04:15:56;13.07;;;11.13;;
48935;SDS011;34745;52.276;10.528;2023-05-07T04:18:23;12.47;;;10.60;;
48935;SDS011;34745;52.276;10.528;2023-05-07T04:20:50;11.90;;;10.60;;
48935;SDS011;34745;52.276;10.528;2023-05-07T04:23:17;11.70;;;10.60;;
48935;SDS011;34745;52.276;10.528;2023-05-07T04:25:44;11.87;;;10.67;;
48935;SDS011;34745;52.276;10.528;2023-05-07T04:28:11;11.57;;;10.37;;
48935;SDS011;34745;52.276;10.528;2023-05-07T04:30:40;11.33;;;10.23;;
48935;SDS011;34745;52.276;10.528;2023-05-07T04:33:07;11.97;;;10.77;;
48935;SDS011;34745;52.276;10.528;2023-05-07T04:35:34;11.83;;;10.63;;
48935;SDS011;34745;52.276;10.528;2023-05-07T04:38:01;13.10;;;10.60;;
48935;SDS011;34745;52.276;10.528;2023-05-07T04:40:28;13.97;;;11.03;;
48935;SDS011;34745;52.276;10.528;2023-05-07T04:42:56;11.70;;;10.50;;
48935;SDS011;34745;52.276;10.528;2023-05-07T04:45:23;11.77;;;10.43;;
48935;SDS011;34745;52.276;10.528;2023-05-07T04:47:51;11.83;;;10.63;;
48935;SDS011;34745;52.276;10.528;2023-05-07T04:50:18;12.13;;;10.77;;
48935;SDS011;34745;52.276;10.528;2023-05-07T04:52:46;12.57;;;11.23;;
48935;SDS011;34745;52.276;10.528;2023-05-07T04:55:13;11.70;;;10.50;;
48935;SDS011;34745;52.276;10.528;2023-05-07T04:57:40;11.27;;;10.13;;
48935;SDS011;34745;52.276;10.528;2023-05-07T05:00:08;11.43;;;10.23;;
48935;SDS011;34745;52.276;10.528;2023-05-07T05:02:36;11.53;;;10.37;;
48935;SDS011;34745;52.276;10.528;2023-05-07T05:05:05;12.53;;;9.73;;
48935;SDS011;34745;52.276;10.528;2023-05-07T05:07:33;9.43;;;8.53;;
48935;SDS011;34745;52.276;10.528;2023-05-07T05:10:01;11.10;;;8.50;;
48935;SDS011;34745;52.276;10.528;2023-05-07T05:12:29;9.97;;;8.07;;
48935;SDS011;34745;52.276;10.528;2023-05-07T05:14:57;8.87;;;7.93;;
48935;SDS011;34745;52.276;10.528;2023-05-07T05:17:23;9.20;;;8.30;;
48935;SDS011;34745;52.276;10.528;2023-05-07T05:19:51;11.37;;;8.73;;
48935;SDS011;34745;52.276;10.528;2023-05-07T05:22:19;9.20;;;8.30;;
48935;SDS011;34745;52.276;10.528;2023-05-07T05:24:47;8.77;;;7.97;;
48935;SDS011;34745;52.276;10.528;2023-05-07T05:27:14;11.70;;;8.17;;
48935;SDS011;34745;52.276;10.528;2023-05-07T05:29:41;9.23;;;8.33;;
48935;SDS011;34745;52.276;10.528;2023-05-07T05:32:08;9.50;;;8.60;;
48935;SDS011;34745;52.276;10.528;2023-05-07T05:34:35;11.07;;;9.97;;
48935;SDS011;34745;52.276;10.528;2023-05-07T05:37:02;10.30;;;9.30;;
48935;SDS011;34745;52.276;10.528;2023-05-07T05:39:31;10.20;;;9.17;;
48935;SDS011;34745;52.276;10.528;2023-05-07T05:41:58;10.33;;;9.27;;
48935;SDS011;34745;52.276;10.528;2023-05-07T05:44:25;10.57;;;9.47;;
48935;SDS011;34745;52.276;10.528;2023-05-07T05:46:52;11.00;;;9.90;;
48935;SDS011;34745;52.276;10.528;2023-05-07T05:49:21;11.47;;;10.27;;
48935;SDS011;34745;52.276;10.528;2023-05-07T05:51:49;11.93;;;10.73;;
48935;SDS011;34745;52.276;10.528;2023-05-07T05:54:15;11.90;;;10.70;;
48935;SDS011;34745;52.276;10.528;2023-05-07T05:56:44;12.13;;;10.93;;
48935;SDS011;34745;52.276;10.528;2023-05-07T05:59:11;12.43;;;11.13;;
48935;SDS011;34745;52.276;10.528;2023-05-07T06:01:38;13.03;;;11.63;;
48935;SDS011;34745;52.276;10.528;2023-05-07T06:04:05;13.03;;;11.73;;
48935;SDS011;34745;52.276;10.528;2023-05-07T06:06:32;12.47;;;11.17;;
48935;SDS011;34745;52.276;10.528;2023-05-07T06:08:59;13.17;;;11.77;;
48935;SDS011;34745;52.276;10.528;2023-05-07T06:11:26;12.80;;;11.43;;
48935;SDS011;34745;52.276;10.528;2023-05-07T06:13:55;12.60;;;11.33;;
48935;SDS011;34745;52.276;10.528;2023-05-07T06:16:22;13.70;;;12.23;;
48935;SDS011;34745;52.276;10.528;2023-05-07T06:18:50;12.50;;;11.27;;
48935;SDS011;34745;52.276;10.528;2023-05-07T06:21:17;13.50;;;12.10;;
48935;SDS011;34745;52.276;10.528;2023-05-07T06:23:44;13.13;;;11.73;;
48935;SDS011;34745;52.276;10.528;2023-05-07T06:26:11;14.77;;;11.90;;
48935;SDS011;34745;52.276;10.528;2023-05-07T06:28:38;13.70;;;11.33;;
48935;SDS011;34745;52.276;10.528;2023-05-07T06:31:14;12.03;;;10.67;;
48935;SDS011;34745;52.276;10.528;2023-05-07T06:33:42;11.70;;;10.50;;
48935;SDS011;34745;52.276;10.528;2023-05-07T06:36:10;11.53;;;10.33;;
48935;SDS011;34745;52.276;10.528;2023-05-07T06:38:36;10.67;;;9.57;;
48935;SDS011;34745;52.276;10.528;2023-05-07T06:41:05;10.83;;;9.80;;
48935;SDS011;34745;52.276;10.528;2023-05-07T06:43:32;10.60;;;9.50;;
48935;SDS011;34745;52.276;10.528;2023-05-07T06:45:59;9.50;;;8.57;;
48935;SDS011;34745;52.276;10.528;2023-05-07T06:48:28;14.87;;;9.70;;
48935;SDS011;34745;52.276;10.528;2023-05-07T06:50:55;10.40;;;9.20;;
48935;SDS011;34745;52.276;10.528;2023-05-07T06:53:23;10.03;;;8.50;;
48935;SDS011;34745;52.276;10.528;2023-05-07T06:55:51;9.17;;;8.27;;
48935;SDS011;34745;52.276;10.528;2023-05-07T06:58:18;9.80;;;8.80;;
48935;SDS011;34745;52.276;10.528;2023-05-07T07:00:45;11.73;;;8.33;;
48935;SDS011;34745;52.276;10.528;2023-05-07T07:03:12;11.17;;;7.93;;
48935;SDS011;34745;52.276;10.528;2023-05-07T07:05:41;9.00;;;8.13;;
48935;SDS011;34745;52.276;10.528;2023-05-07T07:08:09;9.60;;;8.60;;
48935;SDS011;34745;52.276;10.528;2023-05-07T07:10:36;8.90;;;8.00;;
48935;SDS011;34745;52.276;10.528;2023-05-07T07:13:03;9.67;;;8.17;;
48935;SDS011;34745;52.276;10.528;2023-05-07T07:15:32;10.27;;;8.70;;
48935;SDS011;34745;52.276;10.528;2023-05-07T07:17:59;11.33;;;9.57;;
48935;SDS011;34745;52.276;10.528;2023-05-07T07:20:26;9.73;;;8.50;;
48935;SDS011;34745;52.276;10.528;2023-05-07T07:22:54;9.93;;;8.87;;
48935;SDS011;34745;52.276;10.528;2023-05-07T07:25:21;11.60;;;8.80;;
48935;SDS011;34745;52.276;10.528;2023-05-07T07:27:48;12.47;;;9.90;;
48935;SDS011;34745;52.276;10.528;2023-05-07T07:30:16;10.60;;;9.50;;
48935;SDS011;34745;52.276;10.528;2023-05-07T07:32:43;10.67;;;9.57;;
48935;SDS011;34745;52.276;10.528;2023-05-07T07:35:10;11.10;;;9.90;;
48935;SDS011;34745;52.276;10.528;2023-05-07T07:37:37;11.97;;;9.03;;
48935;SDS011;34745;52.276;10.528;2023-05-07T07:40:07;11.00;;;9.43;;
48935;SDS011;34745;52.276;10.528;2023-05-07T07:42:34;10.43;;;8.90;;
48935;SDS011;34745;52.276;10.528;2023-05-07T07:45:02;10.20;;;9.10;;
48935;SDS011;34745;52.276;10.528;2023-05-07T07:47:29;9.93;;;8.90;;
48935;SDS011;34745;52.276;10.528;2023-05-07T07:49:56;9.33;;;8.43;;
48935;SDS011;34745;52.276;10.528;2023-05-07T07:52:23;9.50;;;8.27;;
48935;SDS011;34745;52.276;10.528;2023-05-07T07:54:50;10.93;;;8.63;;
48935;SDS011;34745;52.276;10.528;2023-05-07T07:57:18;11.70;;;10.07;;
48935;SDS011;34745;52.276;10.528;2023-05-07T07:59:46;10.40;;;9.30;;
48935;SDS011;34745;52.276;10.528;2023-05-07T08:02:12;10.33;;;8.90;;
48935;SDS011;34745;52.276;10.528;2023-05-07T08:04:40;10.83;;;8.50;;
48935;SDS011;34745;52.276;10.528;2023-05-07T08:07:08;9.00;;;8.10;;
48935;SDS011;34745;52.276;10.528;2023-05-07T08:09:35;13.13;;;8.77;;
48935;SDS011;34745;52.276;10.528;2023-05-07T08:12:03;10.43;;;8.80;;
48935;SDS011;34745;52.276;10.528;2023-05-07T08:14:32;12.20;;;9.10;;
48935;SDS011;34745;52.276;10.528;2023-05-07T08:16:59;9.87;;;8.87;;
48935;SDS011;34745;52.276;10.528;2023-05-07T08:19:26;9.57;;;8.63;;
48935;SDS011;34745;52.276;10.528;2023-05-07T08:21:53;10.63;;;9.53;;
48935;SDS011;34745;52.276;10.528;2023-05-07T08:24:20;10.30;;;9.17;;
48935;SDS011;34745;52.276;10.528;2023-05-07T08:26:47;14.00;;;8.70;;
48935;SDS011;34745;52.276;10.528;2023-05-07T08:29:14;11.70;;;10.50;;
48935;SDS011;34745;52.276;10.528;2023-05-07T08:31:42;11.80;;;10.67;;
48935;SDS011;34745;52.276;10.528;2023-05-07T08:34:09;13.77;;;11.20;;
48935;SDS011;34745;52.276;10.528;2023-05-07T08:36:36;14.93;;;11.00;;
48935;SDS011;34745;52.276;10.528;2023-05-07T08:39:04;11.90;;;10.70;;
48935;SDS011;34745;52.276;10.528;2023-05-07T08:41:31;11.73;;;10.53;;
48935;SDS011;34745;52.276;10.528;2023-05-07T08:43:59;12.43;;;11.10;;
48935;SDS011;34745;52.276;10.528;2023-05-07T08:46:28;11.13;;;10.00;;
48935;SDS011;34745;52.276;10.528;2023-05-07T08:49:00;16.30;;;12.93;;
48935;SDS011;34745;52.276;10.528;2023-05-07T08:51:27;13.13;;;11.50;;
48935;SDS011;34745;52.276;10.528;2023-05-07T08:53:54;12.37;;;11.07;;
48935;SDS011;34745;52.276;10.528;2023-05-07T08:56:21;10.53;;;9.53;;
48935;SDS011;34745;52.276;10.528;2023-05-07T08:58:48;10.70;;;9.60;;
48935;SDS011;34745;52.276;10.528;2023-05-07T09:01:16;13.73;;;9.43;;
48935;SDS011;34745;52.276;10.528;2023-05-07T09:03:44;10.30;;;9.27;;
48935;SDS011;34745;52.276;10.528;2023-05-07T09:06:14;10.30;;;9.30;;
48935;SDS011;34745;52.276;10.528;2023-05-07T09:08:43;10.57;;;9.57;;
48935;SDS011;34745;52.276;10.528;2023-05-07T09:11:19;10.37;;;9.37;;
48935;SDS011;34745;52.276;10.528;2023-05-07T09:13:47;10.50;;;9.50;;
48935;SDS011;34745;52.276;10.528;2023-05-07T09:16:14;10.60;;;9.50;;
48935;SDS011;34745;52.276;10.528;2023-05-07T09:18:41;10.13;;;9.13;;
48935;SDS011;34745;52.276;10.528;2023-05-07T09:21:14;11.63;;;9.07;;
48935;SDS011;34745;52.276;10.528;2023-05-07T09:23:44;9.53;;;8.53;;
48935;SDS011;34745;52.276;10.528;2023-05-07T09:26:11;10.10;;;9.07;;
48935;SDS011;34745;52.276;10.528;2023-05-07T09:28:39;9.10;;;8.23;;
48935;SDS011;34745;52.276;10.528;2023-05-07T09:31:07;9.43;;;8.53;;
48935;SDS011;34745;52.276;10.528;2023-05-07T09:33:34;9.20;;;8.30;;
48935;SDS011;34745;52.276;10.528;2023-05-07T09:36:04;9.77;;;8.20;;
48935;SDS011;34745;52.276;10.528;2023-05-07T09:38:34;9.37;;;8.47;;
48935;SDS011;34745;52.276;10.528;2023-05-07T09:41:02;8.00;;;7.20;;
48935;SDS011;34745;52.276;10.528;2023-05-07T09:43:31;7.73;;;7.03;;
48935;SDS011;34745;52.276;10.528;2023-05-07T09:46:05;8.13;;;7.33;;
48935;SDS011;34745;52.276;10.528;2023-05-07T09:48:35;7.47;;;6.77;;
48935;SDS011;34745;52.276;10.528;2023-05-07T09:51:06;8.23;;;6.73;;
48935;SDS011;34745;52.276;10.528;2023-05-07T09:53:46;7.53;;;6.73;;
48935;SDS011;34745;52.276;10.528;2023-05-07T09:56:14;7.70;;;6.90;;
48935;SDS011;34745;52.276;10.528;2023-05-07T09:58:43;7.47;;;6.53;;
48935;SDS011;34745;52.276;10.528;2023-05-07T10:01:11;6.43;;;5.83;;
48935;SDS011;34745;52.276;10.528;2023-05-07T10:03:40;7.10;;;6.50;;
48935;SDS011;34745;52.276;10.528;2023-05-07T10:06:08;6.57;;;5.97;;
48935;SDS011;34745;52.276;10.528;2023-05-07T10:08:36;5.60;;;5.00;;
48935;SDS011;34745;52.276;10.528;2023-05-07T10:11:05;6.07;;;5.47;;
48935;SDS011;34745;52.276;10.528;2023-05-07T10:13:32;6.07;;;5.47;;
48935;SDS011;34745;52.276;10.528;2023-05-07T10:16:02;7.13;;;5.70;;
48935;SDS011;34745;52.276;10.528;2023-05-07T10:18:30;6.00;;;5.40;;
48935;SDS011;34745;52.276;10.528;2023-05-07T10:21:01;5.77;;;5.23;;
48935;SDS011;34745;52.276;10.528;2023-05-07T10:23:33;6.67;;;5.97;;
48935;SDS011;34745;52.276;10.528;2023-05-07T10:26:01;6.20;;;5.60;;
48935;SDS011;34745;52.276;10.528;2023-05-07T10:28:33;8.10;;;5.80;;
48935;SDS011;34745;52.276;10.528;2023-05-07T10:31:09;8.17;;;6.67;;
48935;SDS011;34745;52.276;10.528;2023-05-07T10:33:45;11.50;;;6.67;;
48935;SDS011;34745;52.276;10.528;2023-05-07T10:36:14;7.47;;;6.60;;
48935;SDS011;34745;52.276;10.528;2023-05-07T10:38:41;7.10;;;6.50;;
48935;SDS011;34745;52.276;10.528;2023-05-07T10:41:09;8.43;;;6.90;;
48935;SDS011;34745;52.276;10.528;2023-05-07T10:43:39;7.70;;;7.00;;
48935;SDS011;34745;52.276;10.528;2023-05-07T10:46:13;8.13;;;6.47;;
48935;SDS011;34745;52.276;10.528;2023-05-07T10:51:34;6.87;;;6.27;;
48935;SDS011;34745;52.276;10.528;2023-05-07T10:54:21;7.73;;;6.93;;
48935;SDS011;34745;52.276;10.528;2023-05-07T10:56:48;6.73;;;6.13;;
48935;SDS011;34745;52.276;10.528;2023-05-07T10:59:32;10.33;;;6.30;;
48935;SDS011;34745;52.276;10.528;2023-05-07T11:02:01;6.53;;;5.60;;
48935;SDS011;34745;52.276;10.528;2023-05-07T11:04:30;5.47;;;4.97;;
48935;SDS011;34745;52.276;10.528;2023-05-07T11:12:49;6.17;;;5.17;;
48935;SDS011;34745;52.276;10.528;2023-05-07T11:15:35;5.33;;;4.73;;
48935;SDS011;34745;52.276;10.528;2023-05-07T11:18:06;4.90;;;4.50;;
48935;SDS011;34745;52.276;10.528;2023-05-07T11:26:46;4.63;;;4.20;;
48935;SDS011;34745;52.276;10.528;2023-05-07T11:29:15;6.53;;;5.40;;
48935;SDS011;34745;52.276;10.528;2023-05-07T11:31:51;4.50;;;4.10;;
48935;SDS011;34745;52.276;10.528;2023-05-07T11:34:20;4.43;;;4.03;;
48935;SDS011;34745;52.276;10.528;2023-05-07T11:36:48;5.57;;;4.03;;
48935;SDS011;34745;52.276;10.528;2023-05-07T11:39:26;4.67;;;4.27;;
48935;SDS011;34745;52.276;10.528;2023-05-07T11:41:54;5.13;;;3.90;;
48935;SDS011;34745;52.276;10.528;2023-05-07T11:44:21;4.90;;;4.07;;
48935;SDS011;34745;52.276;10.528;2023-05-07T11:46:48;4.87;;;4.40;;
48935;SDS011;34745;52.276;10.528;2023-05-07T11:49:17;5.40;;;4.90;;
48935;SDS011;34745;52.276;10.528;2023-05-07T11:51:44;4.93;;;4.53;;
48935;SDS011;34745;52.276;10.528;2023-05-07T11:54:15;5.20;;;4.70;;
48935;SDS011;34745;52.276;10.528;2023-05-07T11:56:43;6.13;;;4.53;;
48935;SDS011;34745;52.276;10.528;2023-05-07T11:59:11;5.77;;;5.20;;
48935;SDS011;34745;52.276;10.528;2023-05-07T12:01:38;6.10;;;5.50;;
48935;SDS011;34745;52.276;10.528;2023-05-07T12:04:05;6.70;;;6.07;;
48935;SDS011;34745;52.276;10.528;2023-05-07T12:06:36;6.97;;;5.50;;
48935;SDS011;34745;52.276;10.528;2023-05-07T12:09:04;5.93;;;5.33;;
48935;SDS011;34745;52.276;10.528;2023-05-07T12:11:33;9.20;;;5.63;;
48935;SDS011;34745;52.276;10.528;2023-05-07T12:14:01;6.27;;;5.60;;
48935;SDS011;34745;52.276;10.528;2023-05-07T12:16:30;6.70;;;5.80;;
48935;SDS011;34745;52.276;10.528;2023-05-07T12:18:58;7.37;;;6.57;;
48935;SDS011;34745;52.276;10.528;2023-05-07T12:21:26;6.57;;;5.97;;
48935;SDS011;34745;52.276;10.528;2023-05-07T12:23:55;9.17;;;6.67;;
48935;SDS011;34745;52.276;10.528;2023-05-07T12:26:22;7.10;;;6.43;;
48935;SDS011;34745;52.276;10.528;2023-05-07T12:28:50;7.23;;;6.27;;
48935;SDS011;34745;52.276;10.528;2023-05-07T12:31:17;8.43;;;6.93;;
48935;SDS011;34745;52.276;10.528;2023-05-07T12:33:45;7.33;;;6.57;;
48935;SDS011;34745;52.276;10.528;2023-05-07T12:36:12;7.50;;;6.27;;
48935;SDS011;34745;52.276;10.528;2023-05-07T12:38:40;6.90;;;6.23;;
48935;SDS011;34745;52.276;10.528;2023-05-07T12:41:09;8.37;;;6.57;;
48935;SDS011;34745;52.276;10.528;2023-05-07T12:43:39;8.27;;;6.33;;
48935;SDS011;34745;52.276;10.528;2023-05-07T12:46:06;7.10;;;6.40;;
48935;SDS011;34745;52.276;10.528;2023-05-07T12:48:35;6.77;;;6.10;;
48935;SDS011;34745;52.276;10.528;2023-05-07T12:51:04;6.30;;;5.70;;
48935;SDS011;34745;52.276;10.528;2023-05-07T12:53:33;7.30;;;6.23;;
48935;SDS011;34745;52.276;10.528;2023-05-07T12:56:06;8.03;;;5.40;;
48935;SDS011;34745;52.276;10.528;2023-05-07T12:58:35;8.30;;;5.33;;
48935;SDS011;34745;52.276;10.528;2023-05-07T13:01:04;6.77;;;5.63;;
48935;SDS011;34745;52.276;10.528;2023-05-07T13:03:32;7.87;;;5.77;;
48935;SDS011;34745;52.276;10.528;2023-05-07T13:06:02;7.23;;;5.90;;
48935;SDS011;34745;52.276;10.528;2023-05-07T13:08:31;9.03;;;5.63;;
48935;SDS011;34745;52.276;10.528;2023-05-07T13:10:59;6.17;;;5.57;;
48935;SDS011;34745;52.276;10.528;2023-05-07T13:13:30;6.40;;;5.60;;
48935;SDS011;34745;52.276;10.528;2023-05-07T13:15:59;5.77;;;5.17;;
48935;SDS011;34745;52.276;10.528;2023-05-07T13:18:28;6.40;;;5.13;;
48935;SDS011;34745;52.276;10.528;2023-05-07T13:20:56;6.10;;;5.50;;
48935;SDS011;34745;52.276;10.528;2023-05-07T13:23:24;5.90;;;5.30;;
48935;SDS011;34745;52.276;10.528;2023-05-07T13:25:51;6.00;;;5.40;;
48935;SDS011;34745;52.276;10.528;2023-05-07T13:28:22;5.97;;;5.37;;
48935;SDS011;34745;52.276;10.528;2023-05-07T13:30:50;6.03;;;4.97;;
48935;SDS011;34745;52.276;10.528;2023-05-07T13:33:19;5.10;;;4.60;;
48935;SDS011;34745;52.276;10.528;2023-05-07T13:35:46;6.40;;;5.80;;
48935;SDS011;34745;52.276;10.528;2023-05-07T13:38:13;5.83;;;5.20;;
48935;SDS011;34745;52.276;10.528;2023-05-07T13:40:42;7.40;;;5.23;;
48935;SDS011;34745;52.276;10.528;2023-05-07T13:43:09;6.05;;;5.45;;
48935;SDS011;34745;52.276;10.528;2023-05-07T13:45:37;5.53;;;5.03;;
48935;SDS011;34745;52.276;10.528;2023-05-07T13:48:04;5.75;;;4.82;;
48935;SDS011;34745;52.276;10.528;2023-05-07T13:50:32;4.60;;;4.22;;
48935;SDS011;34745;52.276;10.528;2023-05-07T13:52:59;5.90;;;4.53;;
48935;SDS011;34745;52.276;10.528;2023-05-07T13:55:28;5.78;;;4.45;;
48935;SDS011;34745;52.276;10.528;2023-05-07T13:57:56;5.07;;;4.47;;
48935;SDS011;34745;52.276;10.528;2023-05-07T14:00:24;4.70;;;4.18;;
48935;SDS011;34745;52.276;10.528;2023-05-07T14:02:52;3.88;;;3.58;;
48935;SDS011;34745;52.276;10.528;2023-05-07T14:05:19;4.50;;;4.10;;
48935;SDS011;34745;52.276;10.528;2023-05-07T14:07:48;6.07;;;4.07;;
48935;SDS011;34745;52.276;10.528;2023-05-07T14:10:18;4.67;;;4.23;;
48935;SDS011;34745;52.276;10.528;2023-05-07T14:12:45;9.63;;;4.70;;
48935;SDS011;34745;52.276;10.528;2023-05-07T14:15:13;5.40;;;4.90;;
48935;SDS011;34745;52.276;10.528;2023-05-07T14:17:40;5.88;;;4.05;;
48935;SDS011;34745;52.276;10.528;2023-05-07T14:20:08;6.82;;;4.47;;
48935;SDS011;34745;52.276;10.528;2023-05-07T14:22:37;6.93;;;4.40;;
48935;SDS011;34745;52.276;10.528;2023-05-07T14:25:06;4.35;;;4.05;;
48935;SDS011;34745;52.276;10.528;2023-05-07T14:27:35;6.60;;;4.10;;
48935;SDS011;34745;52.276;10.528;2023-05-07T14:30:03;5.10;;;4.30;;
48935;SDS011;34745;52.276;10.528;2023-05-07T14:32:31;5.85;;;4.68;;
48935;SDS011;34745;52.276;10.528;2023-05-07T14:34:58;5.38;;;4.60;;
48935;SDS011;34745;52.276;10.528;2023-05-07T14:37:25;5.43;;;4.22;;
48935;SDS011;34745;52.276;10.528;2023-05-07T14:39:53;5.72;;;5.10;;
48935;SDS011;34745;52.276;10.528;2023-05-07T14:42:21;5.17;;;4.63;;